createdAt,value
2018-05-13T00:02:07.229Z,19.61
2018-05-13T00:04:34.684Z,19.76
2018-05-13T00:07:02.148Z,19.68
2018-05-13T00:09:29.561Z,19.71
2018-05-13T00:11:56.983Z,19.73
2018-05-13T00:14:24.409Z,19.79
2018-05-13T00:16:51.850Z,19.73
2018-05-13T00:19:19.309Z,19.78
2018-05-13T00:21:46.737Z,19.87
2018-05-13T00:24:14.156Z,19.92
2018-05-13T00:26:41.571Z,19.83
2018-05-13T00:29:08.985Z,19.88
2018-05-13T00:31:36.409Z,19.98
2018-05-13T00:34:03.833Z,20.18
2018-05-13T00:36:31.264Z,20.34
2018-05-13T00:38:58.753Z,20.28
2018-05-13T00:41:26.208Z,20.30
2018-05-13T00:43:53.664Z,20.34
2018-05-13T00:46:21.073Z,20.46
2018-05-13T00:48:48.489Z,20.51
2018-05-13T00:51:15.923Z,20.50
2018-05-13T00:53:43.392Z,20.31
2018-05-13T00:56:10.860Z,20.17
2018-05-13T00:58:38.280Z,20.20
2018-05-13T01:01:05.697Z,20.27
2018-05-13T01:03:33.112Z,20.28
2018-05-13T01:06:00.523Z,20.23
2018-05-13T01:08:27.981Z,20.27
2018-05-13T01:10:55.464Z,20.21
2018-05-13T01:13:22.904Z,20.25
2018-05-13T01:15:50.393Z,20.31
2018-05-13T01:18:17.840Z,20.27
2018-05-13T01:20:45.261Z,20.18
2018-05-13T01:23:12.685Z,20.23
2018-05-13T01:25:40.095Z,20.03
2018-05-13T01:28:07.520Z,19.98
2018-05-13T01:30:34.937Z,20.08
2018-05-13T01:33:02.364Z,20.03
2018-05-13T01:35:29.813Z,19.99
2018-05-13T01:37:57.269Z,20.02
2018-05-13T01:40:24.681Z,19.94
2018-05-13T01:42:52.104Z,20.03
2018-05-13T01:45:19.526Z,20.11
2018-05-13T01:47:46.944Z,20.00
2018-05-13T01:50:14.360Z,19.97
2018-05-13T01:52:41.790Z,19.98
2018-05-13T01:55:09.217Z,20.01
2018-05-13T01:57:36.716Z,20.03
2018-05-13T02:00:04.146Z,20.04
2018-05-13T02:02:31.572Z,19.99
2018-05-13T02:04:58.992Z,19.96
2018-05-13T02:07:26.412Z,19.87
2018-05-13T02:09:53.819Z,19.84
2018-05-13T02:12:21.263Z,19.75
2018-05-13T02:14:48.684Z,19.83
2018-05-13T02:17:16.151Z,19.89
2018-05-13T02:19:43.572Z,19.88
2018-05-13T02:22:10.991Z,19.93
2018-05-13T02:24:38.414Z,20.01
2018-05-13T02:27:05.824Z,20.00
2018-05-13T02:29:33.249Z,20.05
2018-05-13T02:32:00.665Z,20.00
2018-05-13T02:34:28.140Z,19.96
2018-05-13T02:36:55.556Z,19.99
2018-05-13T02:39:22.973Z,20.13
2018-05-13T02:41:50.412Z,20.15
2018-05-13T02:44:17.873Z,20.27
2018-05-13T02:46:45.280Z,20.44
2018-05-13T02:49:12.704Z,20.48
2018-05-13T02:51:40.113Z,20.50
2018-05-13T02:54:07.547Z,20.46
2018-05-13T02:56:35.036Z,20.44
2018-05-13T02:59:02.461Z,20.42
2018-05-13T03:01:29.872Z,20.48
2018-05-13T03:03:57.402Z,20.62
2018-05-13T03:06:24.856Z,20.67
2018-05-13T03:08:52.280Z,20.74
2018-05-13T03:11:19.695Z,20.82
2018-05-13T03:13:47.207Z,20.78
2018-05-13T03:16:14.625Z,20.78
2018-05-13T03:18:42.045Z,20.76
2018-05-13T03:21:09.484Z,20.80
2018-05-13T03:23:36.908Z,20.82
2018-05-13T03:26:04.327Z,20.81
2018-05-13T03:28:31.747Z,20.82
2018-05-13T03:30:59.165Z,20.86
2018-05-13T03:33:26.592Z,20.91
2018-05-13T03:35:54.011Z,20.99
2018-05-13T03:38:21.441Z,21.00
2018-05-13T03:40:48.861Z,21.00
2018-05-13T03:43:16.278Z,21.00
2018-05-13T03:45:43.690Z,20.98
2018-05-13T03:48:11.192Z,21.04
2018-05-13T03:50:38.605Z,21.01
2018-05-13T03:53:06.028Z,20.98
2018-05-13T03:55:33.450Z,20.83
2018-05-13T03:58:00.908Z,20.67
2018-05-13T04:00:28.324Z,20.54
2018-05-13T04:02:55.741Z,20.46
2018-05-13T04:05:23.156Z,20.49
2018-05-13T04:10:57.411Z,20.39
2018-05-13T04:13:36.928Z,20.38
2018-05-13T04:16:04.360Z,20.33
2018-05-13T04:18:31.786Z,20.25
2018-05-13T04:20:59.320Z,20.28
2018-05-13T04:23:26.739Z,20.22
2018-05-13T04:25:54.226Z,20.17
2018-05-13T04:28:21.640Z,20.14
2018-05-13T04:30:49.132Z,20.17
2018-05-13T04:33:16.540Z,20.17
2018-05-13T04:35:43.965Z,20.06
2018-05-13T04:38:11.380Z,20.00
2018-05-13T04:40:38.805Z,19.88
2018-05-13T04:43:06.330Z,19.64
2018-05-13T04:45:33.776Z,19.47
2018-05-13T04:48:01.225Z,19.52
2018-05-13T04:50:28.687Z,19.48
2018-05-13T04:52:56.109Z,19.37
2018-05-13T04:55:23.637Z,19.41
2018-05-13T04:57:51.001Z,19.35
2018-05-13T05:00:18.428Z,19.26
2018-05-13T05:02:45.848Z,19.02
2018-05-13T05:05:13.272Z,18.77
2018-05-13T05:07:40.683Z,18.61
2018-05-13T05:10:08.116Z,18.47
2018-05-13T05:12:35.531Z,18.36
2018-05-13T05:15:02.967Z,18.27
2018-05-13T05:17:30.389Z,18.19
2018-05-13T05:19:57.805Z,18.12
2018-05-13T05:22:25.221Z,18.09
2018-05-13T05:24:53.537Z,18.10
2018-05-13T05:27:20.948Z,18.11
2018-05-13T05:29:48.374Z,18.11
2018-05-13T05:32:15.804Z,18.11
2018-05-13T05:34:43.248Z,18.14
2018-05-13T05:37:10.660Z,18.18
2018-05-13T05:39:38.092Z,18.26
2018-05-13T05:42:05.519Z,18.34
2018-05-13T05:44:32.933Z,18.34
2018-05-13T05:47:00.477Z,18.38
2018-05-13T05:49:27.899Z,18.42
2018-05-13T05:51:55.372Z,18.43
2018-05-13T05:54:22.846Z,18.50
2018-05-13T05:56:50.269Z,18.55
2018-05-13T05:59:17.741Z,18.64
2018-05-13T06:01:45.202Z,18.67
2018-05-13T06:04:12.649Z,18.69
2018-05-13T06:06:40.079Z,18.73
2018-05-13T06:09:07.556Z,18.79
2018-05-13T06:11:35.020Z,18.89
2018-05-13T06:14:02.441Z,18.95
2018-05-13T06:16:29.858Z,19.03
2018-05-13T06:18:57.341Z,19.06
2018-05-13T06:21:24.757Z,19.15
2018-05-13T06:23:52.177Z,19.29
2018-05-13T06:26:19.633Z,19.41
2018-05-13T06:28:47.032Z,19.48
2018-05-13T06:31:14.452Z,19.60
2018-05-13T06:33:41.873Z,19.69
2018-05-13T06:36:09.317Z,19.76
2018-05-13T06:38:36.733Z,19.81
2018-05-13T06:41:04.167Z,19.91
2018-05-13T06:43:31.591Z,20.04
2018-05-13T06:45:59.010Z,20.17
2018-05-13T06:48:26.429Z,20.25
2018-05-13T06:50:53.954Z,20.34
2018-05-13T06:53:21.316Z,20.43
2018-05-13T06:55:48.740Z,20.56
2018-05-13T06:58:16.159Z,20.62
2018-05-13T07:00:43.590Z,20.69
2018-05-13T07:03:11.045Z,20.79
2018-05-13T07:05:38.458Z,20.85
2018-05-13T07:08:05.881Z,20.99
2018-05-13T07:10:33.295Z,21.12
2018-05-13T07:13:00.728Z,21.20
2018-05-13T07:15:28.257Z,21.31
2018-05-13T07:17:55.711Z,21.50
2018-05-13T07:20:23.128Z,21.68
2018-05-13T07:22:50.551Z,21.84
2018-05-13T07:25:17.974Z,21.95
2018-05-13T07:27:45.389Z,22.07
2018-05-13T07:30:12.809Z,22.22
2018-05-13T07:32:40.244Z,22.31
2018-05-13T07:35:07.685Z,22.40
2018-05-13T07:37:35.114Z,22.57
2018-05-13T07:40:02.534Z,22.69
2018-05-13T07:42:29.948Z,22.90
2018-05-13T07:44:57.368Z,23.16
2018-05-13T07:47:24.791Z,23.43
2018-05-13T07:49:52.216Z,23.60
2018-05-13T07:52:19.649Z,23.79
2018-05-13T07:54:47.052Z,23.95
2018-05-13T07:57:14.491Z,24.16
2018-05-13T07:59:41.900Z,24.29
2018-05-13T08:02:09.338Z,24.35
2018-05-13T08:04:36.844Z,24.49
2018-05-13T08:07:04.260Z,24.65
2018-05-13T08:09:31.681Z,24.69
2018-05-13T08:11:59.109Z,24.79
2018-05-13T08:14:26.517Z,24.98
2018-05-13T08:16:53.941Z,25.10
2018-05-13T08:19:21.357Z,25.27
2018-05-13T08:21:48.809Z,25.31
2018-05-13T08:24:16.224Z,25.45
2018-05-13T08:26:43.672Z,25.56
2018-05-13T08:29:11.098Z,25.90
2018-05-13T08:31:38.517Z,26.30
2018-05-13T08:34:05.938Z,26.45
2018-05-13T08:36:33.368Z,26.45
2018-05-13T08:39:00.780Z,26.62
2018-05-13T08:41:28.239Z,26.94
2018-05-13T08:43:55.628Z,27.25
2018-05-13T08:46:23.085Z,27.30
2018-05-13T08:48:50.498Z,27.44
2018-05-13T08:51:17.916Z,27.73
2018-05-13T08:53:45.348Z,27.74
2018-05-13T08:56:12.776Z,27.81
2018-05-13T08:58:40.192Z,27.83
2018-05-13T09:01:07.640Z,28.01
2018-05-13T09:03:35.066Z,28.12
2018-05-13T09:06:02.476Z,28.15
2018-05-13T09:08:29.940Z,28.27
2018-05-13T09:10:57.318Z,28.40
2018-05-13T09:13:24.753Z,28.54
2018-05-13T09:15:52.164Z,28.53
2018-05-13T09:18:19.588Z,28.46
2018-05-13T09:20:47.051Z,28.47
2018-05-13T09:23:14.439Z,28.66
2018-05-13T09:25:41.868Z,28.82
2018-05-13T09:28:09.292Z,28.94
2018-05-13T09:30:36.712Z,29.00
2018-05-13T09:33:04.133Z,29.19
2018-05-13T09:35:31.545Z,29.47
2018-05-13T09:37:58.969Z,29.58
2018-05-13T09:40:26.393Z,29.67
2018-05-13T09:42:53.824Z,29.92
2018-05-13T09:45:21.240Z,30.25
2018-05-13T09:47:48.658Z,30.45
2018-05-13T09:50:16.071Z,30.55
2018-05-13T09:52:43.500Z,30.40
2018-05-13T09:55:10.925Z,30.34
2018-05-13T09:57:38.367Z,30.37
2018-05-13T10:00:05.766Z,30.59
2018-05-13T10:02:33.188Z,30.75
2018-05-13T10:05:00.603Z,30.72
2018-05-13T10:07:28.032Z,30.78
2018-05-13T10:09:55.449Z,30.78
2018-05-13T10:12:22.894Z,31.04
2018-05-13T10:14:50.310Z,31.19
2018-05-13T10:17:17.717Z,31.20
2018-05-13T10:19:45.145Z,31.43
2018-05-13T10:22:12.564Z,31.58
2018-05-13T10:24:39.993Z,31.77
2018-05-13T10:27:07.475Z,31.72
2018-05-13T10:29:34.824Z,31.53
2018-05-13T10:32:02.359Z,31.55
2018-05-13T10:34:29.784Z,31.61
2018-05-13T10:36:57.208Z,31.69
2018-05-13T10:39:24.703Z,31.67
2018-05-13T10:41:52.128Z,31.79
2018-05-13T10:44:19.628Z,32.03
2018-05-13T10:46:47.056Z,32.03
2018-05-13T10:49:14.496Z,31.93
2018-05-13T10:51:41.934Z,32.13
2018-05-13T10:54:09.365Z,32.31
2018-05-13T10:56:36.801Z,32.28
2018-05-13T10:59:04.236Z,32.27
2018-05-13T11:01:31.676Z,32.19
2018-05-13T11:03:59.111Z,32.23
2018-05-13T11:06:26.526Z,32.34
2018-05-13T11:08:53.951Z,32.46
2018-05-13T11:11:21.379Z,32.39
2018-05-13T11:13:48.809Z,32.43
2018-05-13T11:16:16.237Z,32.58
2018-05-13T11:18:43.677Z,32.61
2018-05-13T11:21:11.097Z,32.98
2018-05-13T11:23:38.529Z,32.95
2018-05-13T11:26:05.945Z,32.97
2018-05-13T11:28:33.388Z,32.97
2018-05-13T11:31:00.820Z,32.68
2018-05-13T11:33:28.248Z,32.48
2018-05-13T11:35:55.676Z,32.51
2018-05-13T11:38:23.121Z,32.74
2018-05-13T11:40:50.568Z,32.83
2018-05-13T11:43:18.010Z,32.81
2018-05-13T11:45:45.441Z,32.97
2018-05-13T11:48:12.870Z,33.11
2018-05-13T11:50:40.317Z,33.05
2018-05-13T11:53:07.759Z,32.82
2018-05-13T11:55:35.225Z,32.55
2018-05-13T11:58:02.661Z,32.64
2018-05-13T12:00:30.097Z,32.74
2018-05-13T12:02:57.528Z,32.85
2018-05-13T12:05:24.963Z,32.51
2018-05-13T12:07:52.386Z,32.14
2018-05-13T12:10:19.822Z,31.94
2018-05-13T12:12:47.247Z,31.96
2018-05-13T12:15:14.685Z,32.08
2018-05-13T12:17:42.116Z,32.12
2018-05-13T12:20:09.550Z,31.94
2018-05-13T12:22:36.973Z,31.73
2018-05-13T12:25:04.404Z,31.69
2018-05-13T12:27:31.840Z,31.54
2018-05-13T12:29:59.279Z,31.40
2018-05-13T12:32:26.700Z,31.18
2018-05-13T12:34:54.129Z,31.25
2018-05-13T12:37:21.557Z,31.07
2018-05-13T12:39:48.982Z,30.90
2018-05-13T12:42:16.400Z,31.12
2018-05-13T12:44:43.832Z,31.46
2018-05-13T12:47:11.265Z,31.62
2018-05-13T12:49:38.696Z,31.90
2018-05-13T12:52:06.112Z,32.19
2018-05-13T12:54:33.544Z,32.38
2018-05-13T12:57:00.957Z,32.27
2018-05-13T12:59:28.389Z,31.82
2018-05-13T13:01:55.828Z,31.38
2018-05-13T13:04:23.261Z,31.03
2018-05-13T13:06:50.692Z,31.13
2018-05-13T13:09:18.129Z,31.40
2018-05-13T13:11:45.532Z,31.60
2018-05-13T13:14:13.092Z,31.60
2018-05-13T13:16:40.521Z,31.30
2018-05-13T13:19:07.949Z,30.94
2018-05-13T13:21:35.383Z,30.38
2018-05-13T13:24:02.796Z,30.08
2018-05-13T13:26:30.232Z,30.26
2018-05-13T13:28:57.640Z,30.66
2018-05-13T13:31:25.069Z,30.58
2018-05-13T13:33:52.481Z,30.53
2018-05-13T13:36:19.921Z,30.52
2018-05-13T13:38:47.332Z,30.72
2018-05-13T13:41:14.766Z,30.79
2018-05-13T13:43:42.188Z,30.80
2018-05-13T13:46:09.628Z,30.99
2018-05-13T13:48:37.057Z,30.94
2018-05-13T13:51:04.509Z,30.82
2018-05-13T13:53:31.978Z,30.77
2018-05-13T13:55:59.357Z,30.58
2018-05-13T13:58:26.776Z,30.24
2018-05-13T14:00:54.203Z,29.88
2018-05-13T14:03:21.620Z,29.71
2018-05-13T14:05:49.049Z,29.76
2018-05-13T14:08:16.481Z,30.08
2018-05-13T14:10:43.912Z,30.28
2018-05-13T14:13:11.341Z,30.44
2018-05-13T14:15:38.764Z,30.57
2018-05-13T14:18:06.184Z,30.79
2018-05-13T14:20:33.709Z,30.85
2018-05-13T14:23:01.046Z,30.58
2018-05-13T14:25:28.468Z,30.40
2018-05-13T14:27:55.880Z,30.49
2018-05-13T14:30:23.305Z,30.59
2018-05-13T14:32:50.821Z,30.67
2018-05-13T14:35:18.231Z,30.67
2018-05-13T14:37:45.661Z,30.74
2018-05-13T14:40:13.080Z,30.75
2018-05-13T14:42:40.501Z,30.82
2018-05-13T14:45:07.928Z,30.73
2018-05-13T14:47:35.336Z,30.66
2018-05-13T14:50:02.774Z,30.71
2018-05-13T14:52:30.203Z,30.76
2018-05-13T14:54:57.633Z,30.76
2018-05-13T14:57:25.058Z,30.77
2018-05-13T14:59:52.475Z,30.83
2018-05-13T15:02:19.902Z,30.79
2018-05-13T15:04:47.404Z,30.86
2018-05-13T15:07:26.424Z,30.84
2018-05-13T15:09:53.841Z,30.79
2018-05-13T15:12:21.268Z,30.78
2018-05-13T15:14:48.684Z,30.85
2018-05-13T15:17:16.111Z,30.78
2018-05-13T15:19:43.528Z,30.76
2018-05-13T15:22:14.754Z,30.81
2018-05-13T15:24:42.173Z,30.84
2018-05-13T15:27:09.597Z,30.75
2018-05-13T15:29:37.015Z,30.49
2018-05-13T15:32:04.466Z,30.38
2018-05-13T15:34:31.948Z,30.28
2018-05-13T15:36:59.393Z,30.06
2018-05-13T15:39:26.826Z,29.96
2018-05-13T15:41:54.277Z,29.94
2018-05-13T15:44:21.686Z,29.83
2018-05-13T15:46:49.114Z,29.66
2018-05-13T15:49:16.524Z,29.52
2018-05-13T15:51:43.961Z,29.30
2018-05-13T15:54:11.379Z,29.21
2018-05-13T15:56:38.840Z,29.18
2018-05-13T15:59:06.249Z,29.13
2018-05-13T16:01:33.696Z,29.14
2018-05-13T16:04:01.104Z,29.20
2018-05-13T16:06:28.536Z,29.17
2018-05-13T16:08:55.956Z,29.14
2018-05-13T16:11:23.393Z,29.11
2018-05-13T16:13:50.812Z,29.02
2018-05-13T16:16:18.233Z,28.90
2018-05-13T16:18:45.754Z,28.82
2018-05-13T16:21:13.085Z,28.78
2018-05-13T16:23:40.497Z,28.74
2018-05-13T16:26:07.928Z,28.75
2018-05-13T16:28:35.351Z,28.76
2018-05-13T16:31:02.791Z,28.68
2018-05-13T16:33:30.230Z,28.57
2018-05-13T16:35:57.648Z,28.50
2018-05-13T16:38:25.074Z,28.48
2018-05-13T16:40:52.485Z,28.45
2018-05-13T16:43:19.922Z,28.41
2018-05-13T16:45:47.331Z,28.38
2018-05-13T16:48:14.764Z,28.36
2018-05-13T16:50:42.181Z,28.33
2018-05-13T16:53:09.671Z,28.34
2018-05-13T16:55:37.036Z,28.31
2018-05-13T16:58:04.486Z,28.28
2018-05-13T17:00:31.901Z,28.15
2018-05-13T17:02:59.338Z,28.01
2018-05-13T17:05:26.753Z,27.97
2018-05-13T17:07:54.171Z,27.88
2018-05-13T17:10:21.592Z,27.84
2018-05-13T17:12:49.031Z,27.82
2018-05-13T17:15:16.441Z,27.74
2018-05-13T17:17:43.878Z,27.71
2018-05-13T17:20:11.300Z,27.70
2018-05-13T17:22:38.977Z,27.66
2018-05-13T17:25:06.416Z,27.60
2018-05-13T17:27:33.841Z,27.52
2018-05-13T17:30:01.265Z,27.45
2018-05-13T17:32:28.697Z,27.46
2018-05-13T17:34:56.112Z,27.45
2018-05-13T17:37:23.566Z,27.37
2018-05-13T17:39:50.951Z,27.30
2018-05-13T17:42:18.381Z,27.23
2018-05-13T17:44:45.797Z,27.16
2018-05-13T17:47:13.224Z,27.12
2018-05-13T17:49:40.652Z,27.09
2018-05-13T17:52:08.073Z,27.05
2018-05-13T17:54:35.490Z,27.06
2018-05-13T17:57:03.389Z,27.03
2018-05-13T17:59:30.809Z,26.99
2018-05-13T18:01:58.232Z,27.00
2018-05-13T18:04:25.671Z,26.98
2018-05-13T18:06:53.130Z,26.92
2018-05-13T18:09:20.515Z,26.84
2018-05-13T18:11:47.955Z,26.79
2018-05-13T18:14:15.376Z,26.77
2018-05-13T18:16:42.793Z,26.71
2018-05-13T18:19:10.220Z,26.58
2018-05-13T18:21:37.726Z,26.51
2018-05-13T18:24:05.083Z,26.50
2018-05-13T18:26:32.501Z,26.45
2018-05-13T18:28:59.924Z,26.39
2018-05-13T18:31:27.346Z,26.33
2018-05-13T18:33:54.763Z,26.32
2018-05-13T18:36:22.180Z,26.25
2018-05-13T18:38:49.610Z,26.20
2018-05-13T18:41:17.028Z,26.11
2018-05-13T18:43:44.467Z,26.05
2018-05-13T18:46:11.879Z,25.96
2018-05-13T18:48:39.302Z,25.86
2018-05-13T18:51:06.728Z,25.85
2018-05-13T18:53:34.148Z,25.81
2018-05-13T18:56:01.565Z,25.79
2018-05-13T18:58:28.988Z,25.78
2018-05-13T19:00:56.450Z,25.71
2018-05-13T19:03:23.861Z,25.67
2018-05-13T19:05:51.279Z,25.59
2018-05-13T19:08:18.768Z,25.55
2018-05-13T19:10:46.174Z,25.48
2018-05-13T19:13:13.598Z,25.46
2018-05-13T19:15:41.018Z,25.39
2018-05-13T19:18:08.439Z,25.28
2018-05-13T19:20:35.853Z,25.21
2018-05-13T19:23:03.283Z,25.16
2018-05-13T19:25:30.697Z,25.08
2018-05-13T19:27:58.119Z,25.03
2018-05-13T19:30:25.564Z,24.96
2018-05-13T19:32:53.003Z,24.92
2018-05-13T19:35:20.412Z,24.92
2018-05-13T19:37:47.844Z,24.93
2018-05-13T19:40:15.271Z,24.92
2018-05-13T19:42:42.705Z,24.92
2018-05-13T19:45:10.124Z,24.84
2018-05-13T19:47:37.546Z,24.71
2018-05-13T19:50:04.986Z,24.61
2018-05-13T19:52:32.401Z,24.42
2018-05-13T19:54:59.818Z,24.23
2018-05-13T19:57:27.239Z,24.02
2018-05-13T19:59:54.653Z,23.85
2018-05-13T20:02:22.076Z,23.69
2018-05-13T20:04:49.554Z,23.61
2018-05-13T20:07:16.966Z,23.51
2018-05-13T20:09:44.422Z,23.49
2018-05-13T20:12:11.896Z,23.39
2018-05-13T20:14:39.342Z,23.25
2018-05-13T20:17:06.762Z,23.10
2018-05-13T20:19:34.198Z,22.97
2018-05-13T20:22:01.610Z,22.91
2018-05-13T20:24:29.073Z,22.95
2018-05-13T20:26:56.524Z,22.85
2018-05-13T20:29:23.959Z,22.75
2018-05-13T20:31:51.385Z,22.70
2018-05-13T20:34:18.816Z,22.63
2018-05-13T20:36:46.240Z,22.60
2018-05-13T20:39:13.660Z,22.51
2018-05-13T20:41:41.080Z,22.45
2018-05-13T20:44:08.514Z,22.40
2018-05-13T20:46:35.936Z,22.32
2018-05-13T20:49:03.365Z,22.26
2018-05-13T20:51:30.780Z,22.17
2018-05-13T20:53:58.209Z,22.14
2018-05-13T20:56:25.620Z,22.12
2018-05-13T20:58:53.046Z,22.02
2018-05-13T21:01:20.467Z,21.99
2018-05-13T21:03:47.910Z,21.96
2018-05-13T21:06:15.328Z,21.92
2018-05-13T21:08:42.751Z,21.87
2018-05-13T21:11:10.185Z,21.85
2018-05-13T21:13:37.608Z,21.84
2018-05-13T21:16:05.046Z,21.81
2018-05-13T21:18:32.453Z,21.79
2018-05-13T21:20:59.879Z,21.80
2018-05-13T21:23:27.293Z,21.78
2018-05-13T21:25:54.721Z,21.71
2018-05-13T21:28:22.134Z,21.61
2018-05-13T21:30:49.562Z,21.55
2018-05-13T21:33:16.972Z,21.55
2018-05-13T21:35:44.396Z,21.53
2018-05-13T21:38:11.835Z,21.55
2018-05-13T21:40:39.253Z,21.56
2018-05-13T21:43:06.672Z,21.55
2018-05-13T21:45:34.092Z,21.53
2018-05-13T21:48:01.505Z,21.45
2018-05-13T21:50:28.932Z,21.38
2018-05-13T21:52:56.349Z,21.36
2018-05-13T21:55:23.794Z,21.31
2018-05-13T21:57:51.221Z,21.29
2018-05-13T22:00:18.649Z,21.27
2018-05-13T22:02:46.073Z,21.25
2018-05-13T22:05:13.496Z,21.25
2018-05-13T22:07:40.908Z,21.22
2018-05-13T22:10:08.336Z,21.14
2018-05-13T22:12:35.757Z,21.09
2018-05-13T22:15:03.180Z,21.04
2018-05-13T22:17:30.669Z,21.01
2018-05-13T22:19:58.029Z,20.98
2018-05-13T22:22:25.447Z,20.97
2018-05-13T22:24:52.864Z,20.92
2018-05-13T22:27:20.281Z,20.83
2018-05-13T22:29:47.744Z,20.82
2018-05-13T22:32:15.164Z,20.77
2018-05-13T22:34:42.589Z,20.69
2018-05-13T22:37:10.002Z,20.64
2018-05-13T22:39:37.429Z,20.64
2018-05-13T22:42:04.877Z,20.62
2018-05-13T22:44:32.301Z,20.55
2018-05-13T22:46:59.720Z,20.49
2018-05-13T22:49:27.148Z,20.41
2018-05-13T22:51:54.664Z,20.32
2018-05-13T22:54:22.076Z,20.31
2018-05-13T22:56:49.501Z,20.30
2018-05-13T22:59:16.923Z,20.25
2018-05-13T23:01:44.371Z,20.14
2018-05-13T23:04:11.783Z,20.07
2018-05-13T23:06:39.209Z,19.98
2018-05-13T23:09:06.630Z,19.93
2018-05-13T23:11:34.111Z,19.89
2018-05-13T23:14:01.556Z,19.85
2018-05-13T23:16:28.986Z,19.77
2018-05-13T23:18:56.401Z,19.73
2018-05-13T23:21:23.827Z,19.56
2018-05-13T23:23:51.248Z,19.43
2018-05-13T23:26:18.662Z,19.40
2018-05-13T23:28:46.086Z,19.40
2018-05-13T23:31:13.548Z,19.40
2018-05-13T23:33:40.965Z,19.37
2018-05-13T23:36:08.384Z,19.36
2018-05-13T23:38:35.808Z,19.36
2018-05-13T23:41:03.268Z,19.36
2018-05-13T23:43:30.708Z,19.36
2018-05-13T23:45:58.123Z,19.33
2018-05-13T23:48:25.535Z,19.31
2018-05-13T23:50:52.971Z,19.25
2018-05-13T23:53:20.382Z,19.22
2018-05-13T23:55:47.801Z,19.20
2018-05-13T23:58:15.207Z,19.17
